Time;durP1;ratioP1;P1;durP2;ratioP2;P2;SDS_P1;SDS_P2;PMS_P1;PMS_P2;Temp;Humidity;BMP_temperature;BMP_pressure;BME280_temperature;BME280_humidity;BME280_pressure;Samples;Min_cycle;Max_cycle;Signal;HPM_P1;HPM_P2
2021/05/17 00:02:56;;;;;;;2.40;2.20;;;10.90;99.90;;;;;;5004326;28;20096;-62
2021/05/17 00:05:22;;;;;;;2.28;2.08;;;11.00;99.90;;;;;;5008344;28;20098;-60
2021/05/17 00:07:48;;;;;;;3.78;2.35;;;11.00;99.90;;;;;;5014250;28;20080;-60
2021/05/17 00:10:14;;;;;;;2.45;2.25;;;10.90;99.90;;;;;;5011380;28;20121;-62
2021/05/17 00:18:09;;;;;;;6.18;2.58;;;10.90;99.90;;;;;;4993191;28;20096;-60
2021/05/17 00:20:54;;;;;;;4.30;2.88;;;10.90;99.90;;;;;;4997494;28;20489;-60
2021/05/17 00:23:20;;;;;;;3.65;3.35;;;10.90;99.90;;;;;;5017903;28;20032;-60
2021/05/17 00:26:04;;;;;;;4.07;3.50;;;10.90;99.90;;;;;;5008894;28;20398;-60
2021/05/17 00:28:48;;;;;;;4.65;3.83;;;10.80;99.90;;;;;;5010177;28;20030;-62
2021/05/17 00:31:33;;;;;;;7.00;4.03;;;10.80;99.90;;;;;;5003837;28;20094;-62
2021/05/17 00:34:17;;;;;;;6.32;3.65;;;10.70;99.90;;;;;;5009125;28;20020;-60
2021/05/17 00:36:44;;;;;;;11.35;5.00;;;10.80;99.90;;;;;;4995363;28;20395;-60
2021/05/17 00:41:57;;;;;;;5.90;5.30;;;10.70;99.90;;;;;;4993097;28;20033;-61
2021/05/17 00:47:27;;;;;;;9.40;5.85;;;10.70;99.90;;;;;;5007879;28;20485;-63
2021/05/17 00:49:53;;;;;;;11.25;7.03;;;10.80;99.90;;;;;;5003789;28;20056;-61
2021/05/17 00:55:23;;;;;;;7.43;6.35;;;10.80;99.90;;;;;;4998069;28;20140;-62
2021/05/17 00:57:49;;;;;;;6.97;6.07;;;10.80;99.90;;;;;;4996201;28;20022;-62
2021/05/17 01:00:17;;;;;;;13.40;7.15;;;10.70;99.90;;;;;;4996817;28;20442;-60
2021/05/17 01:05:47;;;;;;;11.98;6.75;;;10.70;99.90;;;;;;5003831;28;20064;-61
2021/05/17 01:08:38;;;;;;;8.20;7.38;;;10.70;99.90;;;;;;5012701;28;20048;-61
2021/05/17 01:11:24;;;;;;;11.05;7.80;;;10.70;99.90;;;;;;5004898;28;20100;-61
2021/05/17 01:25:49;;;;;;;10.88;8.13;;;10.60;99.90;;;;;;5005965;28;20404;-63
2021/05/17 01:28:22;;;;;;;9.63;7.18;;;10.60;99.90;;;;;;5008842;28;20048;-61
2021/05/17 01:33:52;;;;;;;12.95;8.68;;;10.60;99.90;;;;;;5006050;28;20738;-61
2021/05/17 01:36:19;;;;;;;13.60;8.60;;;10.60;99.90;;;;;;5013926;28;20036;-62
2021/05/17 01:38:49;;;;;;;12.45;8.45;;;10.60;99.90;;;;;;5006231;28;20083;-60
2021/05/17 01:44:40;;;;;;;14.75;9.68;;;10.70;99.90;;;;;;4999555;28;20571;-62
2021/05/17 01:47:25;;;;;;;11.75;8.38;;;10.70;99.90;;;;;;5005607;28;20418;-62
2021/05/17 01:56:00;;;;;;;15.57;9.27;;;10.60;99.90;;;;;;5015215;28;20032;-59
2021/05/17 01:58:44;;;;;;;8.48;7.68;;;10.70;99.90;;;;;;5019592;28;20018;-63
2021/05/17 02:01:18;;;;;;;8.35;7.32;;;10.70;99.90;;;;;;5007004;28;20033;-61
2021/05/17 02:03:47;;;;;;;14.02;8.95;;;10.70;99.90;;;;;;5008934;28;20600;-61
2021/05/17 02:06:14;;;;;;;13.35;8.73;;;10.80;99.90;;;;;;5002265;28;20045;-61
2021/05/17 02:08:46;;;;;;;12.00;8.88;;;10.80;99.90;;;;;;5001606;28;20037;-61
2021/05/17 02:11:49;;;;;;;12.83;9.10;;;10.80;99.90;;;;;;4998937;28;20026;-61
2021/05/17 02:17:01;;;;;;;13.50;8.35;;;10.80;99.90;;;;;;5016701;28;20044;-60
2021/05/17 02:19:27;;;;;;;14.13;9.23;;;10.90;99.90;;;;;;5010022;28;20726;-62
2021/05/17 02:21:53;;;;;;;10.68;8.48;;;10.80;99.90;;;;;;5018571;28;20034;-62
2021/05/17 02:24:19;;;;;;;11.75;8.52;;;10.80;99.90;;;;;;5015922;28;20030;-61
2021/05/17 02:26:44;;;;;;;10.68;8.15;;;10.90;99.90;;;;;;5023015;28;20405;-60
2021/05/17 02:29:48;;;;;;;11.18;8.05;;;10.80;99.90;;;;;;5000938;28;20505;-62
2021/05/17 02:32:39;;;;;;;11.57;9.18;;;10.80;99.90;;;;;;5010689;28;20028;-62
2021/05/17 02:35:26;;;;;;;14.00;8.23;;;10.90;99.90;;;;;;5008363;28;20033;-61
2021/05/17 02:40:37;;;;;;;15.25;8.52;;;10.90;99.90;;;;;;5002815;28;20056;-61
2021/05/17 02:43:02;;;;;;;16.33;8.40;;;10.90;99.90;;;;;;4995871;28;20121;-61
2021/05/17 02:49:09;;;;;;;14.20;9.15;;;10.80;99.90;;;;;;5007735;28;20037;-62
2021/05/17 02:51:35;;;;;;;11.32;8.60;;;10.90;99.90;;;;;;5006395;28;20032;-61
2021/05/17 02:54:33;;;;;;;10.25;7.60;;;10.90;99.90;;;;;;5006679;28;20415;-63
2021/05/17 03:00:26;;;;;;;20.80;8.38;;;10.80;99.90;;;;;;5007731;28;20037;-61
2021/05/17 03:03:12;;;;;;;12.43;8.38;;;10.80;99.90;;;;;;5008042;28;20093;-60
2021/05/17 03:05:40;;;;;;;11.05;8.05;;;10.80;99.90;;;;;;5013358;28;20022;-62
2021/05/17 03:08:15;;;;;;;8.85;7.63;;;10.80;99.90;;;;;;5016605;28;20385;-61
2021/05/17 03:11:00;;;;;;;11.95;8.70;;;10.80;99.90;;;;;;5008711;28;20139;-61
2021/05/17 03:13:26;;;;;;;16.02;8.25;;;10.80;99.90;;;;;;5013332;28;20849;-61
2021/05/17 03:15:51;;;;;;;11.38;8.30;;;10.70;99.90;;;;;;5008761;28;20034;-61
2021/05/17 03:18:55;;;;;;;11.38;8.07;;;10.70;99.90;;;;;;5017313;28;20042;-59
2021/05/17 03:21:41;;;;;;;14.85;7.88;;;10.80;99.90;;;;;;5015411;28;20037;-61
2021/05/17 03:24:26;;;;;;;11.13;8.02;;;10.70;99.90;;;;;;5011181;28;20564;-61
2021/05/17 03:30:15;;;;;;;15.05;8.35;;;10.70;99.90;;;;;;5008332;28;20402;-60
2021/05/17 03:32:40;;;;;;;9.98;8.55;;;10.70;99.90;;;;;;4998654;28;20286;-60
2021/05/17 03:35:06;;;;;;;14.88;8.60;;;10.70;99.90;;;;;;5007942;28;20125;-60
2021/05/17 03:37:51;;;;;;;11.48;8.82;;;10.80;99.90;;;;;;5003243;28;20037;-61
2021/05/17 03:40:18;;;;;;;13.00;9.45;;;10.80;99.90;;;;;;5016152;28;20467;-62
2021/05/17 03:42:43;;;;;;;13.63;9.20;;;10.70;99.90;;;;;;4999277;28;20105;-62
2021/05/17 03:45:11;;;;;;;13.93;9.32;;;10.70;99.90;;;;;;5009965;28;20230;-61
2021/05/17 03:47:37;;;;;;;10.18;8.32;;;10.70;99.90;;;;;;5014967;28;20026;-62
2021/05/17 03:52:49;;;;;;;18.00;9.27;;;10.80;99.90;;;;;;5005946;28;20114;-62
2021/05/17 04:01:01;;;;;;;11.82;8.15;;;10.70;99.90;;;;;;5008557;28;20061;-61
2021/05/17 04:03:27;;;;;;;14.52;8.52;;;10.60;99.90;;;;;;5007545;28;20334;-62
2021/05/17 04:14:43;;;;;;;20.67;9.77;;;10.70;99.90;;;;;;5006678;28;20040;-59
2021/05/17 04:17:09;;;;;;;21.50;10.90;;;10.70;99.90;;;;;;5008608;28;20052;-58
2021/05/17 04:22:56;;;;;;;20.63;10.77;;;10.70;99.90;;;;;;5003914;28;20053;-57
2021/05/17 04:25:40;;;;;;;17.92;10.27;;;10.60;99.90;;;;;;5006315;28;20060;-58
2021/05/17 04:28:25;;;;;;;20.13;9.63;;;10.60;99.90;;;;;;5005338;28;20100;-58
2021/05/17 04:33:34;;;;;;;15.98;9.13;;;10.60;99.90;;;;;;5011093;28;20266;-57
2021/05/17 04:41:48;;;;;;;20.23;9.55;;;10.70;99.90;;;;;;4997157;28;20125;-59
2021/05/17 04:44:15;;;;;;;16.92;9.98;;;10.70;99.90;;;;;;5006879;28;20591;-58
2021/05/17 04:46:41;;;;;;;15.82;9.77;;;10.70;99.90;;;;;;5000585;28;20045;-57
2021/05/17 04:49:06;;;;;;;22.92;11.35;;;10.70;99.90;;;;;;4999151;28;20234;-58
2021/05/17 04:51:32;;;;;;;20.63;10.32;;;10.60;99.90;;;;;;5007758;28;20117;-56
2021/05/17 04:53:57;;;;;;;17.90;9.73;;;10.70;99.90;;;;;;5000741;28;20412;-58
2021/05/17 04:56:42;;;;;;;14.98;10.32;;;10.70;99.90;;;;;;4993091;28;20054;-56
2021/05/17 04:59:26;;;;;;;17.55;11.57;;;10.70;99.90;;;;;;4994204;28;20341;-58
2021/05/17 05:01:52;;;;;;;22.83;12.85;;;10.70;99.90;;;;;;5001771;28;20041;-59
2021/05/17 05:04:17;;;;;;;17.15;11.02;;;10.70;99.90;;;;;;5008527;28;20034;-63
2021/05/17 05:13:08;;;;;;;19.77;11.55;;;10.90;99.90;;;;;;4990408;28;20044;-58
2021/05/17 05:15:33;;;;;;;21.65;12.07;;;10.90;99.90;;;;;;4997625;28;20393;-57
2021/05/17 05:18:18;;;;;;;21.83;10.93;;;10.90;99.90;;;;;;5004897;28;20030;-57
2021/05/17 05:23:47;;;;;;;19.73;11.40;;;10.80;99.90;;;;;;4999525;28;20087;-59
2021/05/17 05:29:27;;;;;;;20.27;12.32;;;10.70;99.90;;;;;;4988582;28;20035;-58
2021/05/17 05:34:40;;;;;;;25.50;12.52;;;10.80;99.90;;;;;;4996432;28;20030;-60
2021/05/17 05:37:25;;;;;;;17.05;10.82;;;10.80;99.90;;;;;;4992980;28;20033;-59
2021/05/17 05:40:09;;;;;;;17.95;10.40;;;10.80;99.90;;;;;;5003427;28;20322;-59
2021/05/17 05:45:20;;;;;;;21.17;10.20;;;10.90;99.90;;;;;;4995457;28;20036;-60
2021/05/17 05:50:50;;;;;;;22.98;10.13;;;10.90;99.90;;;;;;5001099;28;20037;-60
2021/05/17 05:59:03;;;;;;;17.10;8.65;;;10.80;99.90;;;;;;5000413;28;20045;-59
2021/05/17 06:02:06;;;;;;;16.23;8.05;;;10.90;99.90;;;;;;5006970;28;20490;-59
2021/05/17 06:04:50;;;;;;;15.85;8.65;;;10.90;99.90;;;;;;5008635;28;20178;-62
2021/05/17 06:07:16;;;;;;;20.20;8.32;;;10.90;99.90;;;;;;5004182;28;20029;-60
2021/05/17 06:09:41;;;;;;;15.40;7.32;;;11.00;99.90;;;;;;5005923;28;20038;-59
2021/05/17 06:12:25;;;;;;;14.70;8.27;;;10.90;99.90;;;;;;5007662;28;20058;-60
2021/05/17 06:21:00;;;;;;;20.48;9.27;;;11.10;99.90;;;;;;4996346;28;20033;-61
2021/05/17 06:23:45;;;;;;;13.23;8.07;;;11.10;99.90;;;;;;5007076;28;20113;-61
2021/05/17 06:26:30;;;;;;;16.60;8.90;;;11.10;99.90;;;;;;4999437;28;20022;-61
2021/05/17 06:29:14;;;;;;;12.43;7.65;;;11.10;99.90;;;;;;5000255;28;20121;-61
2021/05/17 06:31:59;;;;;;;22.75;10.00;;;11.10;99.90;;;;;;4999621;28;20025;-62
2021/05/17 06:37:47;;;;;;;14.88;10.02;;;11.20;99.90;;;;;;5006931;28;20257;-63
2021/05/17 06:40:13;;;;;;;16.63;9.38;;;11.20;99.90;;;;;;5006937;28;20029;-62
2021/05/17 06:45:23;;;;;;;16.02;9.07;;;11.20;99.90;;;;;;5006905;28;20109;-62
2021/05/17 06:47:49;;;;;;;16.83;9.30;;;11.20;99.90;;;;;;5006052;28;20029;-62
2021/05/17 06:50:15;;;;;;;14.27;10.25;;;11.20;99.90;;;;;;4996475;28;20329;-63
2021/05/17 06:52:59;;;;;;;16.35;10.52;;;11.10;99.90;;;;;;5007608;28;20304;-62
2021/05/17 06:55:56;;;;;;;18.90;9.90;;;11.20;99.90;;;;;;5003718;28;20030;-63
2021/05/17 06:58:28;;;;;;;18.33;10.90;;;11.20;99.90;;;;;;5008900;28;20038;-63
2021/05/17 07:01:13;;;;;;;21.38;10.32;;;11.20;99.90;;;;;;5002565;28;20033;-63
2021/05/17 07:03:39;;;;;;;17.70;9.48;;;11.20;99.90;;;;;;5008621;28;20041;-63
2021/05/17 07:06:25;;;;;;;13.95;9.82;;;11.30;99.90;;;;;;5010251;28;20018;-61
2021/05/17 07:17:31;;;;;;;;;;;11.40;99.90;;;;;;5012888;28;20048;-63
2021/05/17 07:19:58;;;;;;;12.40;8.25;;;11.50;99.90;;;;;;5003893;28;19918;-62
2021/05/17 07:25:26;;;;;;;10.00;9.00;;;11.50;99.90;;;;;;5006850;28;20033;-63
2021/05/17 07:27:52;;;;;;;14.07;7.55;;;11.60;99.90;;;;;;5021549;28;20046;-63
2021/05/17 07:33:21;;;;;;;12.25;7.97;;;11.50;99.90;;;;;;5013258;28;20029;-62
2021/05/17 07:35:47;;;;;;;10.85;7.38;;;11.50;99.90;;;;;;5010535;28;20025;-61
2021/05/17 07:38:13;;;;;;;10.52;6.82;;;11.50;99.90;;;;;;5002335;28;20014;-64
2021/05/17 07:40:38;;;;;;;8.20;7.03;;;11.50;99.90;;;;;;5009493;28;20113;-64
2021/05/17 07:43:42;;;;;;;12.15;7.20;;;11.60;99.90;;;;;;5002679;28;20022;-62
2021/05/17 07:46:07;;;;;;;13.13;7.45;;;11.80;99.90;;;;;;5010363;28;20068;-62
2021/05/17 07:57:29;;;;;;;;;;;12.20;99.90;;;;;;5013909;28;20033;-62
2021/05/17 07:59:55;;;;;;;10.75;7.13;;;12.20;99.90;;;;;;5011725;28;19905;-63
2021/05/17 08:02:21;;;;;;;11.23;7.07;;;12.30;99.90;;;;;;5013159;28;20024;-64
2021/05/17 08:07:50;;;;;;;9.48;6.80;;;12.40;99.90;;;;;;5007883;28;20364;-61
2021/05/17 08:10:16;;;;;;;13.23;6.85;;;12.30;99.90;;;;;;5010342;28;20042;-61
2021/05/17 08:13:02;;;;;;;8.57;7.05;;;12.30;99.90;;;;;;5010931;28;20417;-63
2021/05/17 08:15:28;;;;;;;14.73;7.80;;;12.50;99.90;;;;;;5018300;28;20100;-62
2021/05/17 08:17:54;;;;;;;9.90;7.70;;;12.60;99.90;;;;;;5007976;28;20115;-62
2021/05/17 08:20:19;;;;;;;7.60;6.50;;;12.70;99.90;;;;;;5010164;28;20022;-61
2021/05/17 08:23:22;;;;;;;11.40;7.10;;;12.80;99.90;;;;;;5011707;28;20441;-62
2021/05/17 08:25:48;;;;;;;9.75;6.32;;;13.00;99.90;;;;;;5009689;28;20033;-62
2021/05/17 08:28:15;;;;;;;7.57;5.97;;;12.90;99.90;;;;;;5008785;28;20014;-64
2021/05/17 08:36:46;;;;;;;14.25;8.35;;;13.10;99.90;;;;;;5011424;28;20029;-63
2021/05/17 08:39:12;;;;;;;10.10;6.95;;;13.00;99.90;;;;;;5010949;28;20369;-63
2021/05/17 08:41:38;;;;;;;9.68;7.10;;;12.80;99.90;;;;;;5010925;28;20026;-63
2021/05/17 08:44:05;;;;;;;11.52;6.78;;;12.70;99.90;;;;;;5007123;28;20030;-65
2021/05/17 08:47:09;;;;;;;6.00;5.18;;;12.70;99.90;;;;;;5007897;28;20494;-62
2021/05/17 08:52:39;;;;;;;7.30;4.70;;;12.70;99.90;;;;;;5008388;28;20397;-63
2021/05/17 08:55:26;;;;;;;7.90;5.22;;;12.70;99.90;;;;;;5007776;28;20026;-64
2021/05/17 09:01:13;;;;;;;7.50;4.70;;;13.10;99.90;;;;;;5000795;28;20528;-64
2021/05/17 09:06:40;;;;;;;8.65;5.95;;;13.80;99.90;;;;;;5007816;28;19932;-64
2021/05/17 09:09:28;;;;;;;11.18;5.35;;;14.30;99.90;;;;;;5008742;28;20076;-63
2021/05/17 09:17:55;;;;;;;6.05;5.07;;;14.70;99.90;;;;;;5010132;28;20555;-63
2021/05/17 09:29:22;;;;;;;5.75;4.18;;;13.60;99.90;;;;;;5001338;28;20565;-64
2021/05/17 09:31:48;;;;;;;8.15;4.18;;;13.50;99.90;;;;;;5014329;28;20349;-64
2021/05/17 09:34:13;;;;;;;5.72;4.22;;;13.40;99.90;;;;;;5007753;28;20102;-64
2021/05/17 09:37:00;;;;;;;3.95;3.65;;;13.40;99.90;;;;;;5006710;28;20120;-63
2021/05/17 09:42:11;;;;;;;5.22;3.90;;;13.50;99.90;;;;;;5001627;28;20084;-63
2021/05/17 09:44:40;;;;;;;4.55;3.60;;;13.50;99.90;;;;;;5006325;28;20034;-64
2021/05/17 09:47:21;;;;;;;8.30;3.95;;;13.50;99.90;;;;;;5002073;28;20021;-64
2021/05/17 09:50:05;;;;;;;4.13;2.95;;;13.50;99.90;;;;;;5007106;28;20100;-62
2021/05/17 09:55:16;;;;;;;4.50;3.22;;;13.60;99.90;;;;;;5005671;28;20053;-63
2021/05/17 09:57:48;;;;;;;4.38;3.08;;;13.80;99.90;;;;;;5004643;28;20422;-63
2021/05/17 10:00:29;;;;;;;6.65;3.78;;;14.00;99.90;;;;;;5006851;28;20293;-61
2021/05/17 10:03:17;;;;;;;5.43;3.60;;;14.20;99.90;;;;;;5007337;28;20318;-63
2021/05/17 10:08:47;;;;;;;6.47;4.22;;;14.40;99.90;;;;;;5006677;28;20041;-65
2021/05/17 10:11:13;;;;;;;8.55;5.95;;;14.10;99.90;;;;;;5009905;28;20030;-63
2021/05/17 10:13:39;;;;;;;5.53;4.47;;;14.10;99.90;;;;;;5008425;28;20018;-64
2021/05/17 10:16:12;;;;;;;6.47;3.60;;;13.90;99.90;;;;;;5000886;28;20011;-62
2021/05/17 10:18:40;;;;;;;4.60;2.30;;;13.70;99.90;;;;;;5011283;28;20033;-63
2021/05/17 10:21:27;;;;;;;3.13;2.45;;;13.40;99.90;;;;;;5011186;28;20022;-63
2021/05/17 10:23:54;;;;;;;2.70;2.50;;;13.40;99.90;;;;;;5014035;28;20286;-63
2021/05/17 10:26:24;;;;;;;3.67;2.40;;;13.20;99.90;;;;;;5021290;28;20029;-62
2021/05/17 10:35:10;;;;;;;1.52;1.42;;;12.50;99.90;;;;;;5011010;28;20124;-63
2021/05/17 10:37:37;;;;;;;4.97;2.30;;;12.70;99.90;;;;;;5016112;28;20022;-61
2021/05/17 10:43:35;;;;;;;3.05;2.50;;;12.80;99.90;;;;;;5008090;28;20045;-63
2021/05/17 10:55:15;;;;;;;7.07;4.88;;;12.70;99.90;;;;;;5018623;28;20072;-64
2021/05/17 11:00:32;;;;;;;6.30;5.50;;;12.80;99.90;;;;;;5013851;28;20022;-61
2021/05/17 11:05:57;;;;;;;13.07;5.57;;;12.70;99.90;;;;;;5010229;28;20121;-65
2021/05/17 11:08:24;;;;;;;10.68;5.78;;;12.80;99.90;;;;;;5011338;28;20113;-63
2021/05/17 11:11:02;;;;;;;8.35;6.05;;;12.80;99.90;;;;;;5012666;28;20018;-64
2021/05/17 11:13:47;;;;;;;11.93;6.13;;;12.70;99.90;;;;;;5003533;28;20034;-62
2021/05/17 11:21:41;;;;;;;12.07;8.13;;;12.70;99.90;;;;;;5004615;28;20037;-63
2021/05/17 11:24:07;;;;;;;13.30;6.85;;;12.70;99.90;;;;;;5008383;28;20222;-62
2021/05/17 11:26:59;;;;;;;9.50;7.20;;;12.70;99.90;;;;;;5013066;28;20505;-62
2021/05/17 11:29:29;;;;;;;11.57;6.53;;;12.70;99.90;;;;;;5001249;28;20026;-62
2021/05/17 11:38:06;;;;;;;18.45;8.10;;;12.30;99.90;;;;;;4996320;28;20087;-63
2021/05/17 11:40:31;;;;;;;11.40;8.38;;;12.30;99.90;;;;;;5001459;28;20037;-62
2021/05/17 11:46:01;;;;;;;20.48;10.55;;;12.30;99.90;;;;;;5009411;28;20036;-62
2021/05/17 11:51:30;;;;;;;;;;;12.30;99.90;;;;;;5005345;28;20096;-65
2021/05/17 11:54:14;;;;;;;14.85;9.15;;;12.30;99.90;;;;;;5002231;28;19909;-64
2021/05/17 11:57:00;;;;;;;17.30;9.77;;;12.30;99.90;;;;;;5001333;28;20026;-63
2021/05/17 12:11:40;;;;;;;12.80;8.02;;;12.10;99.90;;;;;;5008963;28;20092;-61
2021/05/17 12:14:25;;;;;;;12.63;7.40;;;12.30;99.90;;;;;;5008671;28;20443;-61
2021/05/17 12:17:03;;;;;;;16.42;7.97;;;12.20;99.90;;;;;;5011913;28;20044;-62
2021/05/17 12:19:29;;;;;;;12.73;8.27;;;12.30;99.90;;;;;;5002207;28;20029;-60
2021/05/17 12:22:18;;;;;;;15.80;8.05;;;12.40;99.90;;;;;;4999690;28;20026;-63
2021/05/17 12:27:49;;;;;;;9.85;7.32;;;12.80;99.90;;;;;;5006576;28;20064;-62
2021/05/17 12:30:15;;;;;;;13.52;6.75;;;12.80;99.90;;;;;;5007794;28;20531;-62
2021/05/17 12:33:03;;;;;;;7.78;5.75;;;12.80;99.90;;;;;;5002803;28;20068;-65
2021/05/17 12:35:41;;;;;;;8.90;4.55;;;12.90;99.90;;;;;;5008908;28;20080;-63
2021/05/17 12:38:17;;;;;;;8.23;4.75;;;13.00;99.90;;;;;;5009818;28;20313;-64
2021/05/17 12:40:44;;;;;;;7.55;4.60;;;13.00;99.90;;;;;;5010799;28;20028;-65
2021/05/17 12:49:01;;;;;;;7.47;3.67;;;13.90;99.90;;;;;;5008376;28;20049;-63
2021/05/17 12:51:52;;;;;;;9.02;4.20;;;14.20;99.90;;;;;;4999461;28;20027;-62
2021/05/17 12:57:21;;;;;;;10.70;3.65;;;14.00;99.90;;;;;;5002585;28;20034;-64
2021/05/17 13:00:05;;;;;;;6.30;3.40;;;13.70;99.90;;;;;;5003073;28;20018;-63
2021/05/17 13:02:31;;;;;;;8.63;4.45;;;14.00;99.90;;;;;;4997661;28;20053;-63
2021/05/17 13:05:34;;;;;;;7.85;3.70;;;14.40;99.90;;;;;;5017390;28;20030;-63
2021/05/17 13:10:55;;;;;;;4.53;3.28;;;13.90;99.90;;;;;;5004641;28;20056;-64
2021/05/17 13:13:40;;;;;;;5.80;3.42;;;13.90;99.90;;;;;;5013750;28;20033;-65
2021/05/17 13:16:06;;;;;;;9.10;3.92;;;14.00;99.90;;;;;;5008194;28;20042;-65
2021/05/17 13:18:53;;;;;;;6.60;3.30;;;13.60;99.90;;;;;;5010161;28;20030;-63
2021/05/17 13:21:52;;;;;;;7.70;3.25;;;13.50;99.90;;;;;;5009676;28;20038;-64
2021/05/17 13:30:50;;;;;;;11.27;3.67;;;13.90;99.90;;;;;;5008311;28;20504;-63
2021/05/17 13:33:40;;;;;;;5.78;3.83;;;13.90;99.90;;;;;;5012628;28;20021;-65
2021/05/17 13:36:14;;;;;;;15.02;4.32;;;14.10;99.90;;;;;;5002100;28;20022;-63
2021/05/17 13:38:58;;;;;;;8.38;4.80;;;14.10;99.90;;;;;;5001250;28;20022;-64
2021/05/17 13:41:42;;;;;;;10.60;4.68;;;14.30;99.90;;;;;;5011896;28;20894;-62
2021/05/17 13:44:27;;;;;;;9.45;3.15;;;14.10;99.90;;;;;;5005109;28;20026;-64
2021/05/17 13:47:11;;;;;;;6.65;3.08;;;14.00;99.90;;;;;;5006984;28;20030;-66
2021/05/17 13:49:40;;;;;;;6.05;2.78;;;14.30;99.90;;;;;;4999281;28;20088;-65
2021/05/17 13:57:53;;;;;;;5.90;2.50;;;14.40;99.90;;;;;;5010205;28;20400;-63
2021/05/17 14:06:06;;;;;;;9.00;1.73;;;14.20;99.90;;;;;;5003208;28;20041;-63
2021/05/17 14:14:37;;;;;;;7.65;3.45;;;14.70;99.90;;;;;;5009251;28;20061;-64
2021/05/17 14:17:04;;;;;;;9.13;3.42;;;14.80;99.90;;;;;;5007151;28;20065;-64
2021/05/17 14:19:30;;;;;;;6.10;2.78;;;14.80;99.90;;;;;;5000052;28;20548;-66
2021/05/17 14:22:15;;;;;;;4.03;2.15;;;14.50;99.90;;;;;;5008583;28;20494;-63
2021/05/17 14:24:41;;;;;;;10.88;2.83;;;14.30;99.90;;;;;;5010324;28;20027;-63
2021/05/17 14:27:08;;;;;;;7.47;2.55;;;14.30;99.90;;;;;;5002213;28;20332;-62
2021/05/17 14:29:52;;;;;;;10.38;2.70;;;14.20;99.90;;;;;;4998791;28;20022;-65
2021/05/17 14:32:18;;;;;;;3.90;2.08;;;14.10;99.90;;;;;;5010599;28;20068;-63
2021/05/17 14:34:43;;;;;;;7.70;2.65;;;14.20;99.90;;;;;;5024321;28;20093;-63
2021/05/17 14:39:54;;;;;;;13.82;2.88;;;14.10;99.90;;;;;;5004980;28;20068;-65
2021/05/17 14:42:19;;;;;;;9.98;2.38;;;14.00;99.90;;;;;;5003128;28;20033;-62
2021/05/17 14:47:29;;;;;;;8.40;2.60;;;13.90;99.90;;;;;;5017475;28;20037;-64
2021/05/17 14:49:54;;;;;;;7.70;2.67;;;13.80;99.90;;;;;;5011478;28;20022;-66
2021/05/17 14:52:39;;;;;;;6.47;3.22;;;13.60;99.90;;;;;;5008761;28;20018;-63
2021/05/17 14:55:06;;;;;;;9.57;3.88;;;13.60;99.90;;;;;;5005058;28;20033;-64
2021/05/17 14:57:32;;;;;;;6.05;3.40;;;13.70;99.90;;;;;;5001963;28;20049;-64
2021/05/17 14:59:58;;;;;;;10.80;4.38;;;13.80;99.90;;;;;;5006568;28;20018;-63
2021/05/17 15:02:42;;;;;;;6.43;4.25;;;13.60;99.90;;;;;;5016640;28;20404;-60
2021/05/17 15:05:09;;;;;;;11.68;4.22;;;13.80;99.90;;;;;;5007257;28;20024;-63
2021/05/17 15:07:35;;;;;;;13.68;4.90;;;13.70;99.90;;;;;;5000193;28;20533;-62
2021/05/17 15:21:54;;;;;;;9.15;4.28;;;13.60;99.90;;;;;;4999848;28;20113;-63
2021/05/17 15:24:38;;;;;;;11.73;5.30;;;13.90;99.90;;;;;;5012231;28;20109;-64
2021/05/17 15:27:41;;;;;;;11.52;5.50;;;13.60;99.90;;;;;;5013195;28;20021;-63
2021/05/17 15:33:10;;;;;;;11.55;4.93;;;13.30;99.90;;;;;;5018182;28;20057;-60
2021/05/17 15:35:55;;;;;;;12.60;5.50;;;13.30;99.90;;;;;;5010970;28;20022;-64
2021/05/17 15:38:21;;;;;;;11.55;4.53;;;13.40;99.90;;;;;;5008882;28;20531;-63
2021/05/17 15:41:05;;;;;;;11.20;4.38;;;13.40;99.90;;;;;;5009840;28;20018;-61
2021/05/17 15:44:08;;;;;;;4.65;4.13;;;13.50;99.90;;;;;;5009985;28;20033;-62
2021/05/17 15:46:53;;;;;;;;;;;13.60;99.90;;;;;;5006238;28;20022;-62
2021/05/17 15:52:04;;;;;;;6.80;4.85;;;13.50;99.90;;;;;;5003475;28;20407;-63
2021/05/17 15:57:13;;;;;;;6.55;4.28;;;13.60;99.90;;;;;;5002661;28;20029;-62
2021/05/17 15:59:57;;;;;;;11.38;4.88;;;13.60;99.90;;;;;;5009038;28;20021;-61
2021/05/17 16:02:23;;;;;;;8.35;3.85;;;13.50;99.90;;;;;;5000069;28;20045;-64
2021/05/17 16:05:08;;;;;;;11.00;4.53;;;13.50;99.90;;;;;;5007122;28;20030;-62
2021/05/17 16:07:53;;;;;;;15.52;3.92;;;13.90;99.90;;;;;;5002759;28;20077;-62
2021/05/17 16:10:42;;;;;;;10.85;3.58;;;14.10;99.90;;;;;;5010141;28;20026;-61
2021/05/17 16:25:06;;;;;;;13.77;3.10;;;14.30;99.90;;;;;;5000884;28;20105;-61
2021/05/17 16:33:01;;;;;;;13.45;3.55;;;13.90;99.90;;;;;;5000614;28;20432;-63
2021/05/17 16:35:27;;;;;;;13.18;3.38;;;13.80;99.90;;;;;;4997657;28;20482;-63
2021/05/17 16:43:39;;;;;;;13.30;3.42;;;13.60;99.90;;;;;;5001658;28;20097;-63
2021/05/17 16:49:27;;;;;;;10.20;4.15;;;13.40;99.90;;;;;;5004149;28;20280;-63
2021/05/17 16:52:11;;;;;;;19.33;3.47;;;13.30;99.90;;;;;;5011852;28;20117;-62
2021/05/17 16:54:37;;;;;;;16.88;3.38;;;13.40;99.90;;;;;;5008947;28;20036;-62
2021/05/17 16:57:22;;;;;;;15.20;3.17;;;13.50;99.90;;;;;;5010939;28;20030;-63
2021/05/17 16:59:48;;;;;;;15.48;3.55;;;13.40;99.90;;;;;;5005871;28;20386;-62
2021/05/17 17:02:14;;;;;;;10.35;3.47;;;13.50;99.90;;;;;;5002115;28;20376;-62
2021/05/17 17:04:58;;;;;;;9.85;3.10;;;13.50;99.90;;;;;;5010314;28;20124;-63
2021/05/17 17:07:24;;;;;;;11.23;2.55;;;13.70;99.90;;;;;;4997113;28;20038;-62
2021/05/17 17:10:08;;;;;;;13.35;2.53;;;13.90;99.90;;;;;;5001624;28;20195;-64
2021/05/17 17:12:53;;;;;;;8.02;2.22;;;13.80;99.90;;;;;;5002126;28;20034;-63
2021/05/17 17:15:18;;;;;;;11.05;2.53;;;13.70;99.90;;;;;;5004149;28;20014;-64
2021/05/17 17:17:44;;;;;;;7.68;2.28;;;13.50;99.90;;;;;;5005709;28;20277;-65
2021/05/17 17:20:29;;;;;;;9.00;2.17;;;13.50;99.90;;;;;;5003078;28;20062;-62
2021/05/17 17:25:39;;;;;;;11.85;3.05;;;13.20;99.90;;;;;;5002570;28;20084;-61
2021/05/17 17:28:25;;;;;;;11.52;2.75;;;13.20;99.90;;;;;;4998449;28;20486;-63
2021/05/17 17:33:53;;;;;;;10.63;2.83;;;13.30;99.90;;;;;;4999441;28;20196;-63
2021/05/17 17:39:06;;;;;;;16.70;2.80;;;13.50;99.90;;;;;;4998465;28;20108;-65
2021/05/17 17:41:32;;;;;;;12.25;2.42;;;13.50;99.90;;;;;;5008490;28;20029;-65
2021/05/17 17:49:45;;;;;;;12.85;3.13;;;13.10;99.90;;;;;;5003468;28;20113;-67
2021/05/17 17:52:12;;;;;;;10.93;3.35;;;13.10;99.90;;;;;;5006304;28;20026;-65
2021/05/17 17:57:41;;;;;;;13.13;3.08;;;13.10;99.90;;;;;;5002810;28;20053;-65
2021/05/17 18:00:08;;;;;;;11.25;2.63;;;13.00;99.90;;;;;;4997609;28;20113;-64
2021/05/17 18:05:18;;;;;;;7.60;2.17;;;13.00;99.90;;;;;;5006884;28;20341;-66
2021/05/17 18:07:44;;;;;;;16.48;2.75;;;13.00;99.90;;;;;;5007365;28;20513;-65
2021/05/17 18:10:47;;;;;;;7.70;3.30;;;13.00;99.90;;;;;;4999101;28;20096;-65
2021/05/17 18:13:15;;;;;;;20.35;3.97;;;12.80;99.90;;;;;;5002713;28;20034;-65
2021/05/17 18:16:18;;;;;;;11.98;3.30;;;12.70;99.90;;;;;;5011479;28;20413;-65
2021/05/17 18:19:06;;;;;;;17.38;4.38;;;12.80;99.90;;;;;;5009958;28;20085;-65
2021/05/17 18:21:32;;;;;;;14.80;3.78;;;12.90;99.90;;;;;;5001487;28;20030;-66
2021/05/17 18:23:58;;;;;;;13.35;3.40;;;13.00;99.90;;;;;;5006249;28;20249;-64
2021/05/17 18:26:43;;;;;;;13.60;4.20;;;13.10;99.90;;;;;;5011160;28;20026;-64
2021/05/17 18:29:13;;;;;;;14.13;3.95;;;13.10;99.90;;;;;;5009130;28;20032;-66
2021/05/17 18:37:49;;;;;;;12.13;3.00;;;13.40;99.90;;;;;;5003670;28;20087;-66
2021/05/17 18:46:22;;;;;;;15.13;3.38;;;12.60;99.90;;;;;;5005069;28;20040;-65
2021/05/17 18:49:06;;;;;;;9.38;3.30;;;12.50;99.90;;;;;;5006097;28;20481;-66
2021/05/17 18:51:35;;;;;;;13.88;3.13;;;12.40;99.90;;;;;;5006085;28;20033;-65
2021/05/17 18:54:19;;;;;;;11.77;3.20;;;12.40;99.90;;;;;;5006950;28;20034;-68
2021/05/17 18:56:46;;;;;;;19.55;3.85;;;12.40;99.90;;;;;;5014971;28;20026;-67
2021/05/17 18:59:14;;;;;;;12.45;3.40;;;12.30;99.90;;;;;;5008075;28;20084;-65
2021/05/17 19:04:43;;;;;;;12.52;3.35;;;12.30;99.90;;;;;;5001454;28;20087;-66
2021/05/17 19:07:48;;;;;;;12.90;3.58;;;12.30;99.90;;;;;;5010459;28;20076;-64
2021/05/17 19:10:32;;;;;;;22.45;4.00;;;12.30;99.90;;;;;;5005189;28;20726;-67
2021/05/17 19:12:58;;;;;;;12.90;3.33;;;12.10;99.90;;;;;;5004566;28;20026;-68
2021/05/17 19:15:25;;;;;;;13.60;3.53;;;12.10;99.90;;;;;;4999305;28;20027;-66
2021/05/17 19:17:51;;;;;;;20.60;3.80;;;12.10;99.90;;;;;;5018289;28;20044;-65
2021/05/17 19:20:17;;;;;;;18.23;5.00;;;12.10;99.90;;;;;;5002779;28;20074;-66
2021/05/17 19:23:01;;;;;;;13.18;3.42;;;12.00;99.90;;;;;;5009277;28;20022;-65
2021/05/17 19:25:27;;;;;;;20.13;4.47;;;12.00;99.90;;;;;;5009281;28;20072;-65
2021/05/17 19:30:38;;;;;;;13.80;4.57;;;11.90;99.90;;;;;;5006758;28;20056;-68